sensor_id;sensor_type;location;lat;lon;timestamp;P1;durP1;ratioP1;P2;durP2;ratioP2
6519;SDS011;3293;51.690;5.982;2023-02-11T00:02:09;35.03;;;22.50;;
6519;SDS011;3293;51.690;5.982;2023-02-11T00:07:09;37.27;;;21.53;;
6519;SDS011;3293;51.690;5.982;2023-02-11T00:12:10;39.27;;;21.77;;
6519;SDS011;3293;51.690;5.982;2023-02-11T00:17:10;33.67;;;19.73;;
6519;SDS011;3293;51.690;5.982;2023-02-11T00:22:10;33.47;;;19.77;;
6519;SDS011;3293;51.690;5.982;2023-02-11T00:27:10;31.60;;;19.23;;
6519;SDS011;3293;51.690;5.982;2023-02-11T00:32:10;35.33;;;19.03;;
6519;SDS011;3293;51.690;5.982;2023-02-11T00:37:10;32.30;;;18.60;;
6519;SDS011;3293;51.690;5.982;2023-02-11T00:42:12;30.93;;;17.43;;
6519;SDS011;3293;51.690;5.982;2023-02-11T00:47:13;29.13;;;16.47;;
6519;SDS011;3293;51.690;5.982;2023-02-11T00:52:13;27.20;;;16.27;;
6519;SDS011;3293;51.690;5.982;2023-02-11T00:57:13;24.13;;;16.07;;
6519;SDS011;3293;51.690;5.982;2023-02-11T01:02:13;26.57;;;16.87;;
6519;SDS011;3293;51.690;5.982;2023-02-11T01:07:13;22.57;;;14.63;;
6519;SDS011;3293;51.690;5.982;2023-02-11T01:12:13;25.87;;;14.17;;
6519;SDS011;3293;51.690;5.982;2023-02-11T01:17:13;26.20;;;15.30;;
6519;SDS011;3293;51.690;5.982;2023-02-11T01:22:13;23.33;;;14.60;;
6519;SDS011;3293;51.690;5.982;2023-02-11T01:27:13;26.33;;;14.60;;
6519;SDS011;3293;51.690;5.982;2023-02-11T01:32:13;24.93;;;13.90;;
6519;SDS011;3293;51.690;5.982;2023-02-11T01:37:13;24.67;;;13.37;;
6519;SDS011;3293;51.690;5.982;2023-02-11T01:42:17;21.97;;;13.17;;
6519;SDS011;3293;51.690;5.982;2023-02-11T01:47:19;24.10;;;13.57;;
6519;SDS011;3293;51.690;5.982;2023-02-11T01:52:33;21.13;;;13.63;;
6519;SDS011;3293;51.690;5.982;2023-02-11T01:57:37;16.70;;;11.47;;
6519;SDS011;3293;51.690;5.982;2023-02-11T02:08:10;20.63;;;12.90;;
6519;SDS011;3293;51.690;5.982;2023-02-11T02:13:13;22.57;;;12.17;;
6519;SDS011;3293;51.690;5.982;2023-02-11T02:28:30;21.33;;;12.10;;
6519;SDS011;3293;51.690;5.982;2023-02-11T02:39:26;23.07;;;12.33;;
6519;SDS011;3293;51.690;5.982;2023-02-11T02:44:31;23.87;;;13.33;;
6519;SDS011;3293;51.690;5.982;2023-02-11T02:49:32;21.30;;;11.73;;
6519;SDS011;3293;51.690;5.982;2023-02-11T03:00:21;24.10;;;12.53;;
6519;SDS011;3293;51.690;5.982;2023-02-11T03:10:44;27.13;;;12.53;;
6519;SDS011;3293;51.690;5.982;2023-02-11T03:15:49;22.70;;;12.27;;
6519;SDS011;3293;51.690;5.982;2023-02-11T03:20:53;24.47;;;13.17;;
6519;SDS011;3293;51.690;5.982;2023-02-11T03:25:57;24.43;;;12.77;;
6519;SDS011;3293;51.690;5.982;2023-02-11T03:31:05;18.20;;;12.60;;
6519;SDS011;3293;51.690;5.982;2023-02-11T03:36:08;28.47;;;13.70;;
6519;SDS011;3293;51.690;5.982;2023-02-11T03:41:13;23.37;;;13.27;;
6519;SDS011;3293;51.690;5.982;2023-02-11T03:46:18;24.73;;;12.90;;
6519;SDS011;3293;51.690;5.982;2023-02-11T03:51:22;21.10;;;13.33;;
6519;SDS011;3293;51.690;5.982;2023-02-11T03:56:25;25.13;;;13.60;;
6519;SDS011;3293;51.690;5.982;2023-02-11T04:01:29;23.13;;;13.03;;
6519;SDS011;3293;51.690;5.982;2023-02-11T04:06:29;24.83;;;12.70;;
6519;SDS011;3293;51.690;5.982;2023-02-11T04:11:29;23.87;;;13.03;;
6519;SDS011;3293;51.690;5.982;2023-02-11T04:16:29;22.97;;;12.67;;
6519;SDS011;3293;51.690;5.982;2023-02-11T04:21:30;30.17;;;13.57;;
6519;SDS011;3293;51.690;5.982;2023-02-11T04:26:29;20.73;;;12.63;;
6519;SDS011;3293;51.690;5.982;2023-02-11T04:31:29;23.47;;;13.57;;
6519;SDS011;3293;51.690;5.982;2023-02-11T04:36:29;24.20;;;12.73;;
6519;SDS011;3293;51.690;5.982;2023-02-11T04:41:29;25.97;;;13.50;;
6519;SDS011;3293;51.690;5.982;2023-02-11T04:46:29;22.53;;;12.30;;
6519;SDS011;3293;51.690;5.982;2023-02-11T04:51:29;27.07;;;13.27;;
6519;SDS011;3293;51.690;5.982;2023-02-11T04:56:29;23.30;;;13.43;;
6519;SDS011;3293;51.690;5.982;2023-02-11T05:01:29;22.50;;;12.57;;
6519;SDS011;3293;51.690;5.982;2023-02-11T05:06:29;16.87;;;12.57;;
6519;SDS011;3293;51.690;5.982;2023-02-11T05:11:29;19.40;;;12.93;;
6519;SDS011;3293;51.690;5.982;2023-02-11T05:16:30;27.93;;;13.60;;
6519;SDS011;3293;51.690;5.982;2023-02-11T05:21:30;24.60;;;13.97;;
6519;SDS011;3293;51.690;5.982;2023-02-11T05:26:30;24.03;;;12.87;;
6519;SDS011;3293;51.690;5.982;2023-02-11T05:31:31;22.63;;;13.93;;
6519;SDS011;3293;51.690;5.982;2023-02-11T05:36:31;26.37;;;13.40;;
6519;SDS011;3293;51.690;5.982;2023-02-11T05:41:31;23.70;;;13.57;;
6519;SDS011;3293;51.690;5.982;2023-02-11T05:46:31;24.27;;;13.50;;
6519;SDS011;3293;51.690;5.982;2023-02-11T05:51:31;22.80;;;13.77;;
6519;SDS011;3293;51.690;5.982;2023-02-11T05:56:31;24.83;;;14.47;;
6519;SDS011;3293;51.690;5.982;2023-02-11T06:01:31;22.03;;;14.10;;
6519;SDS011;3293;51.690;5.982;2023-02-11T06:06:31;31.83;;;14.70;;
6519;SDS011;3293;51.690;5.982;2023-02-11T06:11:31;20.23;;;13.83;;
6519;SDS011;3293;51.690;5.982;2023-02-11T06:16:31;30.37;;;15.57;;
6519;SDS011;3293;51.690;5.982;2023-02-11T06:21:31;29.07;;;15.97;;
6519;SDS011;3293;51.690;5.982;2023-02-11T06:26:31;27.33;;;15.00;;
6519;SDS011;3293;51.690;5.982;2023-02-11T06:31:31;22.40;;;14.20;;
6519;SDS011;3293;51.690;5.982;2023-02-11T06:36:31;29.03;;;14.60;;
6519;SDS011;3293;51.690;5.982;2023-02-11T06:41:31;34.83;;;16.93;;
6519;SDS011;3293;51.690;5.982;2023-02-11T06:46:31;32.17;;;15.63;;
6519;SDS011;3293;51.690;5.982;2023-02-11T06:51:32;36.83;;;16.83;;
6519;SDS011;3293;51.690;5.982;2023-02-11T06:56:32;28.23;;;17.70;;
6519;SDS011;3293;51.690;5.982;2023-02-11T07:01:32;35.10;;;19.33;;
6519;SDS011;3293;51.690;5.982;2023-02-11T07:06:32;27.23;;;17.00;;
6519;SDS011;3293;51.690;5.982;2023-02-11T07:11:32;29.97;;;18.57;;
6519;SDS011;3293;51.690;5.982;2023-02-11T07:16:33;32.97;;;19.10;;
6519;SDS011;3293;51.690;5.982;2023-02-11T07:21:33;29.63;;;18.70;;
6519;SDS011;3293;51.690;5.982;2023-02-11T07:26:33;30.40;;;19.30;;
6519;SDS011;3293;51.690;5.982;2023-02-11T07:31:33;36.20;;;20.60;;
6519;SDS011;3293;51.690;5.982;2023-02-11T07:36:33;31.10;;;20.07;;
6519;SDS011;3293;51.690;5.982;2023-02-11T07:41:33;33.60;;;20.37;;
6519;SDS011;3293;51.690;5.982;2023-02-11T07:46:33;34.30;;;21.03;;
6519;SDS011;3293;51.690;5.982;2023-02-11T07:51:33;39.10;;;22.60;;
6519;SDS011;3293;51.690;5.982;2023-02-11T07:56:33;44.47;;;22.60;;
6519;SDS011;3293;51.690;5.982;2023-02-11T08:01:33;41.70;;;23.33;;
6519;SDS011;3293;51.690;5.982;2023-02-11T08:06:34;39.53;;;22.93;;
6519;SDS011;3293;51.690;5.982;2023-02-11T08:11:38;44.23;;;24.57;;
6519;SDS011;3293;51.690;5.982;2023-02-11T08:16:38;43.30;;;24.50;;
6519;SDS011;3293;51.690;5.982;2023-02-11T08:21:39;42.70;;;24.13;;
6519;SDS011;3293;51.690;5.982;2023-02-11T08:26:39;54.13;;;25.73;;
6519;SDS011;3293;51.690;5.982;2023-02-11T08:31:40;47.70;;;26.43;;
6519;SDS011;3293;51.690;5.982;2023-02-11T08:36:42;47.20;;;25.70;;
6519;SDS011;3293;51.690;5.982;2023-02-11T08:41:43;45.67;;;26.13;;
6519;SDS011;3293;51.690;5.982;2023-02-11T08:46:44;45.50;;;24.27;;
6519;SDS011;3293;51.690;5.982;2023-02-11T08:51:45;48.67;;;27.00;;
6519;SDS011;3293;51.690;5.982;2023-02-11T08:56:45;47.60;;;29.77;;
6519;SDS011;3293;51.690;5.982;2023-02-11T09:01:49;52.37;;;29.57;;
6519;SDS011;3293;51.690;5.982;2023-02-11T09:06:49;52.03;;;29.57;;
6519;SDS011;3293;51.690;5.982;2023-02-11T09:11:49;52.13;;;28.90;;
6519;SDS011;3293;51.690;5.982;2023-02-11T09:16:50;44.97;;;29.30;;
6519;SDS011;3293;51.690;5.982;2023-02-11T09:21:51;54.40;;;30.90;;
6519;SDS011;3293;51.690;5.982;2023-02-11T09:26:51;47.97;;;30.07;;
6519;SDS011;3293;51.690;5.982;2023-02-11T09:31:51;53.87;;;30.33;;
6519;SDS011;3293;51.690;5.982;2023-02-11T09:36:51;49.70;;;30.87;;
6519;SDS011;3293;51.690;5.982;2023-02-11T09:57:48;51.93;;;31.03;;
6519;SDS011;3293;51.690;5.982;2023-02-11T10:03:12;56.87;;;31.53;;
6519;SDS011;3293;51.690;5.982;2023-02-11T10:08:22;44.73;;;30.17;;
6519;SDS011;3293;51.690;5.982;2023-02-11T10:14:05;52.67;;;31.87;;
6519;SDS011;3293;51.690;5.982;2023-02-11T10:24:39;51.07;;;31.23;;
6519;SDS011;3293;51.690;5.982;2023-02-11T10:29:55;48.93;;;29.47;;
6519;SDS011;3293;51.690;5.982;2023-02-11T10:35:09;54.57;;;33.03;;
6519;SDS011;3293;51.690;5.982;2023-02-11T10:40:18;50.87;;;31.43;;
6519;SDS011;3293;51.690;5.982;2023-02-11T10:45:22;51.07;;;31.17;;
6519;SDS011;3293;51.690;5.982;2023-02-11T10:50:31;45.33;;;30.43;;
6519;SDS011;3293;51.690;5.982;2023-02-11T10:55:33;49.07;;;30.80;;
6519;SDS011;3293;51.690;5.982;2023-02-11T11:00:35;52.80;;;31.10;;
6519;SDS011;3293;51.690;5.982;2023-02-11T11:05:46;48.10;;;30.37;;
6519;SDS011;3293;51.690;5.982;2023-02-11T11:11:04;51.57;;;30.13;;
6519;SDS011;3293;51.690;5.982;2023-02-11T11:16:33;48.03;;;30.93;;
6519;SDS011;3293;51.690;5.982;2023-02-11T11:21:49;48.37;;;31.07;;
6519;SDS011;3293;51.690;5.982;2023-02-11T11:26:54;45.93;;;29.40;;
6519;SDS011;3293;51.690;5.982;2023-02-11T11:31:58;47.17;;;30.30;;
6519;SDS011;3293;51.690;5.982;2023-02-11T11:37:12;43.17;;;29.97;;
6519;SDS011;3293;51.690;5.982;2023-02-11T11:42:30;43.47;;;29.40;;
6519;SDS011;3293;51.690;5.982;2023-02-11T11:52:58;37.90;;;28.07;;
6519;SDS011;3293;51.690;5.982;2023-02-11T11:57:58;42.33;;;26.83;;
6519;SDS011;3293;51.690;5.982;2023-02-11T12:03:09;44.40;;;28.00;;
6519;SDS011;3293;51.690;5.982;2023-02-11T12:50:21;42.73;;;25.70;;
6519;SDS011;3293;51.690;5.982;2023-02-11T12:55:36;37.23;;;26.07;;
6519;SDS011;3293;51.690;5.982;2023-02-11T13:00:44;32.37;;;22.73;;
6519;SDS011;3293;51.690;5.982;2023-02-11T13:06:06;28.23;;;18.73;;
6519;SDS011;3293;51.690;5.982;2023-02-11T13:11:16;27.00;;;17.87;;
6519;SDS011;3293;51.690;5.982;2023-02-11T13:16:41;27.23;;;17.67;;
6519;SDS011;3293;51.690;5.982;2023-02-11T13:21:47;26.40;;;16.37;;
6519;SDS011;3293;51.690;5.982;2023-02-11T13:32:22;23.17;;;16.73;;
6519;SDS011;3293;51.690;5.982;2023-02-11T13:37:23;22.70;;;16.30;;
6519;SDS011;3293;51.690;5.982;2023-02-11T13:42:25;24.83;;;16.50;;
6519;SDS011;3293;51.690;5.982;2023-02-11T13:52:32;25.50;;;16.13;;
6519;SDS011;3293;51.690;5.982;2023-02-11T13:57:38;25.10;;;16.50;;
6519;SDS011;3293;51.690;5.982;2023-02-11T14:02:40;24.13;;;14.80;;
6519;SDS011;3293;51.690;5.982;2023-02-11T14:23:46;15.70;;;11.00;;
6519;SDS011;3293;51.690;5.982;2023-02-11T14:28:47;13.93;;;11.17;;
6519;SDS011;3293;51.690;5.982;2023-02-11T14:39:01;17.27;;;10.93;;
6519;SDS011;3293;51.690;5.982;2023-02-11T14:44:31;16.00;;;10.03;;
6519;SDS011;3293;51.690;5.982;2023-02-11T14:49:34;22.13;;;11.97;;
6519;SDS011;3293;51.690;5.982;2023-02-11T14:54:37;16.10;;;11.73;;
6519;SDS011;3293;51.690;5.982;2023-02-11T14:59:38;20.23;;;13.00;;
6519;SDS011;3293;51.690;5.982;2023-02-11T15:04:50;15.90;;;12.30;;
6519;SDS011;3293;51.690;5.982;2023-02-11T15:09:51;15.87;;;12.87;;
6519;SDS011;3293;51.690;5.982;2023-02-11T15:14:53;20.23;;;13.43;;
6519;SDS011;3293;51.690;5.982;2023-02-11T15:19:58;19.97;;;14.30;;
6519;SDS011;3293;51.690;5.982;2023-02-11T15:30:23;20.70;;;14.13;;
6519;SDS011;3293;51.690;5.982;2023-02-11T15:35:26;17.67;;;13.23;;
6519;SDS011;3293;51.690;5.982;2023-02-11T15:40:28;18.63;;;13.87;;
6519;SDS011;3293;51.690;5.982;2023-02-11T15:45:43;19.17;;;13.83;;
6519;SDS011;3293;51.690;5.982;2023-02-11T15:50:57;20.23;;;12.87;;
6519;SDS011;3293;51.690;5.982;2023-02-11T15:56:03;18.30;;;13.53;;
6519;SDS011;3293;51.690;5.982;2023-02-11T16:01:06;18.40;;;14.93;;
6519;SDS011;3293;51.690;5.982;2023-02-11T16:11:21;20.17;;;15.07;;
6519;SDS011;3293;51.690;5.982;2023-02-11T16:16:31;27.00;;;15.83;;
6519;SDS011;3293;51.690;5.982;2023-02-11T16:21:33;24.80;;;15.40;;
6519;SDS011;3293;51.690;5.982;2023-02-11T16:26:37;22.70;;;15.77;;
6519;SDS011;3293;51.690;5.982;2023-02-11T16:31:42;22.87;;;15.93;;
6519;SDS011;3293;51.690;5.982;2023-02-11T16:36:45;23.77;;;16.97;;
6519;SDS011;3293;51.690;5.982;2023-02-11T16:41:47;23.40;;;17.10;;
6519;SDS011;3293;51.690;5.982;2023-02-11T16:46:49;21.70;;;16.63;;
6519;SDS011;3293;51.690;5.982;2023-02-11T16:51:50;25.60;;;17.13;;
6519;SDS011;3293;51.690;5.982;2023-02-11T16:56:52;22.53;;;17.10;;
6519;SDS011;3293;51.690;5.982;2023-02-11T17:01:52;24.23;;;17.90;;
6519;SDS011;3293;51.690;5.982;2023-02-11T17:06:53;25.60;;;17.77;;
6519;SDS011;3293;51.690;5.982;2023-02-11T17:11:53;27.60;;;19.43;;
6519;SDS011;3293;51.690;5.982;2023-02-11T17:16:53;28.87;;;19.50;;
6519;SDS011;3293;51.690;5.982;2023-02-11T17:21:53;30.73;;;19.07;;
6519;SDS011;3293;51.690;5.982;2023-02-11T17:26:53;30.17;;;20.93;;
6519;SDS011;3293;51.690;5.982;2023-02-11T17:31:53;28.77;;;21.37;;
6519;SDS011;3293;51.690;5.982;2023-02-11T17:36:54;31.93;;;22.00;;
6519;SDS011;3293;51.690;5.982;2023-02-11T17:41:54;36.57;;;21.80;;
6519;SDS011;3293;51.690;5.982;2023-02-11T17:46:54;29.63;;;21.47;;
6519;SDS011;3293;51.690;5.982;2023-02-11T17:51:55;31.53;;;22.10;;
6519;SDS011;3293;51.690;5.982;2023-02-11T17:56:55;30.67;;;21.97;;
6519;SDS011;3293;51.690;5.982;2023-02-11T18:01:55;32.60;;;22.47;;
6519;SDS011;3293;51.690;5.982;2023-02-11T18:06:55;33.87;;;21.10;;
6519;SDS011;3293;51.690;5.982;2023-02-11T18:11:55;36.80;;;22.50;;
6519;SDS011;3293;51.690;5.982;2023-02-11T18:16:56;35.63;;;22.07;;
6519;SDS011;3293;51.690;5.982;2023-02-11T18:21:56;31.93;;;22.00;;
6519;SDS011;3293;51.690;5.982;2023-02-11T18:26:57;33.17;;;22.30;;
6519;SDS011;3293;51.690;5.982;2023-02-11T18:31:57;34.60;;;24.37;;
6519;SDS011;3293;51.690;5.982;2023-02-11T18:36:58;36.90;;;22.20;;
6519;SDS011;3293;51.690;5.982;2023-02-11T18:41:58;37.37;;;23.70;;
6519;SDS011;3293;51.690;5.982;2023-02-11T18:46:58;36.80;;;23.80;;
6519;SDS011;3293;51.690;5.982;2023-02-11T18:51:58;34.10;;;23.30;;
6519;SDS011;3293;51.690;5.982;2023-02-11T18:56:58;43.70;;;23.50;;
6519;SDS011;3293;51.690;5.982;2023-02-11T19:01:58;36.80;;;22.60;;
6519;SDS011;3293;51.690;5.982;2023-02-11T19:06:58;33.53;;;23.90;;
6519;SDS011;3293;51.690;5.982;2023-02-11T19:12:01;37.63;;;23.83;;
6519;SDS011;3293;51.690;5.982;2023-02-11T19:17:03;33.97;;;24.17;;
6519;SDS011;3293;51.690;5.982;2023-02-11T19:22:04;37.40;;;24.83;;
6519;SDS011;3293;51.690;5.982;2023-02-11T19:27:04;40.07;;;26.57;;
6519;SDS011;3293;51.690;5.982;2023-02-11T19:32:04;38.73;;;26.73;;
6519;SDS011;3293;51.690;5.982;2023-02-11T19:37:05;38.40;;;26.93;;
6519;SDS011;3293;51.690;5.982;2023-02-11T19:42:06;43.40;;;28.80;;
6519;SDS011;3293;51.690;5.982;2023-02-11T19:47:06;42.67;;;28.83;;
6519;SDS011;3293;51.690;5.982;2023-02-11T19:52:05;43.50;;;30.13;;
6519;SDS011;3293;51.690;5.982;2023-02-11T19:57:05;43.20;;;28.17;;
6519;SDS011;3293;51.690;5.982;2023-02-11T20:02:05;44.63;;;28.27;;
6519;SDS011;3293;51.690;5.982;2023-02-11T20:07:06;42.73;;;29.20;;
6519;SDS011;3293;51.690;5.982;2023-02-11T20:12:06;36.87;;;27.10;;
6519;SDS011;3293;51.690;5.982;2023-02-11T20:17:06;40.33;;;26.47;;
6519;SDS011;3293;51.690;5.982;2023-02-11T20:22:06;37.13;;;27.07;;
6519;SDS011;3293;51.690;5.982;2023-02-11T20:27:06;41.97;;;27.20;;
6519;SDS011;3293;51.690;5.982;2023-02-11T20:32:09;37.70;;;24.57;;
6519;SDS011;3293;51.690;5.982;2023-02-11T20:37:10;47.20;;;26.30;;
6519;SDS011;3293;51.690;5.982;2023-02-11T20:42:12;37.17;;;23.80;;
6519;SDS011;3293;51.690;5.982;2023-02-11T20:47:13;39.00;;;24.80;;
6519;SDS011;3293;51.690;5.982;2023-02-11T20:52:13;35.07;;;24.90;;
6519;SDS011;3293;51.690;5.982;2023-02-11T20:57:14;36.80;;;25.57;;
6519;SDS011;3293;51.690;5.982;2023-02-11T21:02:15;37.10;;;25.20;;
6519;SDS011;3293;51.690;5.982;2023-02-11T21:07:15;36.00;;;24.83;;
6519;SDS011;3293;51.690;5.982;2023-02-11T21:12:17;37.03;;;24.77;;
6519;SDS011;3293;51.690;5.982;2023-02-11T21:17:17;48.70;;;27.93;;
6519;SDS011;3293;51.690;5.982;2023-02-11T21:22:18;45.93;;;26.47;;
6519;SDS011;3293;51.690;5.982;2023-02-11T21:27:17;37.70;;;25.30;;
6519;SDS011;3293;51.690;5.982;2023-02-11T21:32:18;45.33;;;29.77;;
6519;SDS011;3293;51.690;5.982;2023-02-11T21:37:18;42.80;;;29.33;;
6519;SDS011;3293;51.690;5.982;2023-02-11T21:42:18;45.83;;;28.60;;
6519;SDS011;3293;51.690;5.982;2023-02-11T21:47:18;40.77;;;28.77;;
6519;SDS011;3293;51.690;5.982;2023-02-11T21:52:18;41.90;;;27.43;;
6519;SDS011;3293;51.690;5.982;2023-02-11T21:57:18;44.97;;;29.67;;
6519;SDS011;3293;51.690;5.982;2023-02-11T22:02:17;49.23;;;29.07;;
6519;SDS011;3293;51.690;5.982;2023-02-11T22:07:17;44.37;;;29.47;;
6519;SDS011;3293;51.690;5.982;2023-02-11T22:12:18;48.70;;;29.53;;
6519;SDS011;3293;51.690;5.982;2023-02-11T22:17:19;50.57;;;31.47;;
6519;SDS011;3293;51.690;5.982;2023-02-11T22:22:19;46.63;;;29.10;;
6519;SDS011;3293;51.690;5.982;2023-02-11T22:27:19;44.83;;;28.87;;
6519;SDS011;3293;51.690;5.982;2023-02-11T22:32:19;49.43;;;29.77;;
6519;SDS011;3293;51.690;5.982;2023-02-11T22:37:20;45.57;;;29.77;;
6519;SDS011;3293;51.690;5.982;2023-02-11T22:42:20;54.10;;;30.60;;
6519;SDS011;3293;51.690;5.982;2023-02-11T22:47:20;43.53;;;28.20;;
6519;SDS011;3293;51.690;5.982;2023-02-11T22:52:20;44.13;;;29.13;;
6519;SDS011;3293;51.690;5.982;2023-02-11T22:57:21;44.77;;;28.13;;
6519;SDS011;3293;51.690;5.982;2023-02-11T23:02:21;41.23;;;26.40;;
6519;SDS011;3293;51.690;5.982;2023-02-11T23:07:21;41.23;;;25.93;;
6519;SDS011;3293;51.690;5.982;2023-02-11T23:12:21;43.37;;;27.27;;
6519;SDS011;3293;51.690;5.982;2023-02-11T23:17:21;42.83;;;28.43;;
6519;SDS011;3293;51.690;5.982;2023-02-11T23:22:22;40.13;;;27.27;;
6519;SDS011;3293;51.690;5.982;2023-02-11T23:27:22;43.90;;;27.70;;
6519;SDS011;3293;51.690;5.982;2023-02-11T23:32:23;38.07;;;25.43;;
6519;SDS011;3293;51.690;5.982;2023-02-11T23:37:22;38.83;;;26.60;;
6519;SDS011;3293;51.690;5.982;2023-02-11T23:42:22;43.77;;;27.20;;
6519;SDS011;3293;51.690;5.982;2023-02-11T23:47:23;45.10;;;27.27;;
6519;SDS011;3293;51.690;5.982;2023-02-11T23:52:23;39.80;;;27.70;;
6519;SDS011;3293;51.690;5.982;2023-02-11T23:57:22;40.53;;;26.67;;
